Terminal Aerodrome Forecast
Issued by NWS Mt. Holly, NJ

Home | Current Version | Previous Version | Text Only | Print | Product List | Glossary On
Versions: 1 2 3 4 5 6 7 8 9 10 11 12 13 14 15 16 17 18 19 20 21 22 23 24 25 26 27
000
FTUS41 KPHI 291700
TAFPHL
TAF
KPHL 291720Z 2918/3024 16007KT P6SM OVC100
     FM300000 16007KT 3SM -SN OVC040
     FM300100 17007KT 1SM -SN OVC020
     FM300300 18008KT P6SM OVC040
     FM300800 22006KT 6SM -SHSN OVC015
     FM301000 29010KT P6SM SCT015 OVC040
     FM301400 31020G34KT P6SM BKN040=

USA.gov is the U.S. government's official web portal to all federal, state and local government web resources and services.